createdAt,value
2022-10-05T00:01:35.039Z,98271.00
2022-10-05T00:05:36.157Z,98269.00
2022-10-05T00:09:37.195Z,98257.00
2022-10-05T00:13:39.677Z,98256.00
2022-10-05T00:17:41.568Z,98249.00
2022-10-05T00:21:42.530Z,98247.00
2022-10-05T00:25:43.704Z,98249.00
2022-10-05T00:29:45.917Z,98239.00
2022-10-05T00:33:48.413Z,98216.00
2022-10-05T00:37:54.894Z,98217.00
2022-10-05T00:42:05.584Z,98227.00
2022-10-05T00:46:16.394Z,98221.00
2022-10-05T00:50:49.289Z,98235.00
2022-10-05T00:55:06.055Z,98238.00
2022-10-05T00:59:19.767Z,98242.00
2022-10-05T01:03:41.095Z,98239.00
2022-10-05T01:07:54.779Z,98245.00
2022-10-05T01:12:05.402Z,98249.00
2022-10-05T01:16:19.251Z,98252.00
2022-10-05T01:20:26.688Z,98249.00
2022-10-05T01:24:47.987Z,98253.00
2022-10-05T01:28:55.478Z,98247.00
2022-10-05T01:33:00.193Z,98241.00
2022-10-05T01:37:14.095Z,98227.00
2022-10-05T01:41:33.932Z,98220.00
2022-10-05T01:45:44.651Z,98216.00
2022-10-05T01:54:23.802Z,98201.00
2022-10-05T01:58:46.280Z,98189.00
2022-10-05T02:03:05.834Z,98185.00
2022-10-05T02:07:10.690Z,98176.00
2022-10-05T02:11:14.058Z,98170.00
2022-10-05T02:15:18.791Z,98173.00
2022-10-05T02:19:32.443Z,98156.00
2022-10-05T02:23:37.188Z,98158.00
2022-10-05T02:27:49.518Z,98150.00
2022-10-05T02:31:54.582Z,98144.00
2022-10-05T02:36:01.656Z,98152.00
2022-10-05T02:40:34.888Z,98164.00
2022-10-05T02:44:39.671Z,98169.00
2022-10-05T02:49:11.124Z,98149.00
2022-10-05T02:53:25.308Z,98155.00
2022-10-05T02:57:46.737Z,98159.00
2022-10-05T03:01:53.938Z,98149.00
2022-10-05T03:06:01.835Z,98153.00
2022-10-05T03:10:33.457Z,98166.00
2022-10-05T03:14:49.559Z,98175.00
2022-10-05T03:19:10.506Z,98182.00
2022-10-05T03:23:34.918Z,98169.00
2022-10-05T03:27:42.407Z,98175.00
2022-10-05T03:31:47.176Z,98157.00
2022-10-05T03:35:58.083Z,98167.00
2022-10-05T03:40:19.582Z,98169.00
2022-10-05T03:44:29.973Z,98167.00
2022-10-05T03:48:40.126Z,98166.00
2022-10-05T03:52:44.956Z,98162.00
2022-10-05T03:57:00.771Z,98166.00
2022-10-05T04:01:05.513Z,98165.00
2022-10-05T04:05:22.075Z,98180.00
2022-10-05T04:09:38.874Z,98157.00
2022-10-05T04:13:52.290Z,98162.00
2022-10-05T04:17:59.886Z,98156.00
2022-10-05T04:22:19.665Z,98163.00
2022-10-05T04:26:27.167Z,98167.00
2022-10-05T04:30:31.112Z,98168.00
2022-10-05T04:35:10.830Z,98170.00
2022-10-05T04:39:33.685Z,98175.00
2022-10-05T04:43:38.526Z,98177.00
2022-10-05T04:48:03.010Z,98181.00
2022-10-05T04:52:16.641Z,98179.00
2022-10-05T04:56:21.418Z,98182.00
2022-10-05T05:00:25.166Z,98180.00
2022-10-05T05:04:52.035Z,98186.00
2022-10-05T05:09:20.277Z,98191.00
2022-10-05T05:13:30.855Z,98192.00
2022-10-05T05:17:44.447Z,98189.00
2022-10-05T05:21:54.515Z,98188.00
2022-10-05T05:26:21.612Z,98195.00
2022-10-05T05:30:25.949Z,98190.00
2022-10-05T05:34:47.068Z,98197.00
2022-10-05T05:39:07.075Z,98188.00
2022-10-05T05:43:23.788Z,98185.00
2022-10-05T05:47:39.533Z,98184.00
2022-10-05T05:51:44.403Z,98188.00
2022-10-05T05:55:49.248Z,98185.00
2022-10-05T06:00:05.792Z,98184.00
2022-10-05T06:04:25.880Z,98189.00
2022-10-05T06:08:39.409Z,98187.00
2022-10-05T06:12:46.926Z,98191.00
2022-10-05T06:16:54.353Z,98207.00
2022-10-05T06:20:59.269Z,98206.00
2022-10-05T06:25:16.208Z,98218.00
2022-10-05T06:29:20.944Z,98215.00
2022-10-05T06:33:44.952Z,98225.00
2022-10-05T06:38:17.067Z,98216.00
2022-10-05T06:42:33.655Z,98215.00
2022-10-05T06:46:54.973Z,98215.00
2022-10-05T06:51:05.958Z,98221.00
2022-10-05T06:55:31.247Z,98210.00
2022-10-05T06:59:56.303Z,98213.00
2022-10-05T07:04:10.206Z,98216.00
2022-10-05T07:08:20.940Z,98216.00
2022-10-05T07:12:46.807Z,98218.00
2022-10-05T07:17:06.553Z,98214.00
2022-10-05T07:21:40.103Z,98204.00
2022-10-05T07:25:50.776Z,98208.00
2022-10-05T07:30:07.323Z,98207.00
2022-10-05T07:34:37.517Z,98206.00
2022-10-05T07:39:08.116Z,98204.00
2022-10-05T07:43:24.743Z,98205.00
2022-10-05T07:47:47.568Z,98213.00
2022-10-05T07:51:52.118Z,98203.00
2022-10-05T07:56:06.245Z,98206.00
2022-10-05T08:00:17.145Z,98208.00
2022-10-05T08:04:41.922Z,98208.00
2022-10-05T08:09:14.232Z,98207.00
2022-10-05T08:13:30.947Z,98214.00
2022-10-05T08:17:56.950Z,98211.00
2022-10-05T08:22:01.788Z,98204.00
2022-10-05T08:26:26.213Z,98210.00
2022-10-05T08:30:29.740Z,98209.00
2022-10-05T08:34:37.464Z,98213.00
2022-10-05T08:38:39.439Z,98212.00
2022-10-05T08:42:53.236Z,98221.00
2022-10-05T08:47:18.156Z,98224.00
2022-10-05T08:51:25.610Z,98218.00
2022-10-05T08:55:51.586Z,98218.00
2022-10-05T09:00:05.621Z,98216.00
2022-10-05T09:04:28.890Z,98215.00
2022-10-05T09:08:39.575Z,98221.00
2022-10-05T09:12:53.670Z,98236.00
2022-10-05T09:17:13.290Z,98210.00
2022-10-05T09:21:41.917Z,98211.00
2022-10-05T09:25:55.532Z,98218.00
2022-10-05T09:30:17.936Z,98221.00
2022-10-05T09:34:30.005Z,98218.00
2022-10-05T09:38:37.833Z,98214.00
2022-10-05T09:43:02.154Z,98211.00
2022-10-05T09:47:26.407Z,98214.00
2022-10-05T09:52:01.624Z,98213.00
2022-10-05T10:00:59.574Z,98210.00
2022-10-05T10:05:04.582Z,98200.00
2022-10-05T10:09:28.843Z,98194.00
2022-10-05T10:13:53.119Z,98196.00
2022-10-05T10:18:18.851Z,98192.00
2022-10-05T10:22:43.083Z,98187.00
2022-10-05T10:27:05.307Z,98188.00
2022-10-05T10:31:45.295Z,98190.00
2022-10-05T10:36:14.822Z,98188.00
2022-10-05T10:40:22.784Z,98186.00
2022-10-05T10:44:38.851Z,98193.00
2022-10-05T10:49:01.600Z,98182.00
2022-10-05T10:53:15.470Z,98190.00
2022-10-05T10:57:32.420Z,98197.00
2022-10-05T11:01:46.547Z,98181.00
2022-10-05T11:05:54.707Z,98168.00
2022-10-05T11:10:28.380Z,98177.00
2022-10-05T11:14:51.751Z,98165.00
2022-10-05T11:19:08.560Z,98157.00
2022-10-05T11:23:22.252Z,98160.00
2022-10-05T11:27:44.979Z,98159.00
2022-10-05T11:31:54.841Z,98159.00
2022-10-05T11:36:11.572Z,98157.00
2022-10-05T11:40:22.255Z,98159.00
2022-10-05T11:45:00.354Z,98145.00
2022-10-05T11:49:29.572Z,98144.00
2022-10-05T11:53:46.233Z,98145.00
2022-10-05T11:58:01.036Z,98137.00
2022-10-05T12:02:27.180Z,98135.00
2022-10-05T12:06:50.965Z,98139.00
2022-10-05T12:11:21.854Z,98142.00
2022-10-05T12:15:26.739Z,98123.00
2022-10-05T12:19:35.930Z,98137.00
2022-10-05T12:23:47.022Z,98127.00
2022-10-05T12:27:53.375Z,98123.00
2022-10-05T12:32:04.654Z,98123.00
2022-10-05T12:36:09.442Z,98114.00
2022-10-05T12:40:19.969Z,98119.00
2022-10-05T12:44:30.916Z,98109.00
2022-10-05T12:49:02.891Z,98097.00
2022-10-05T12:53:22.914Z,98101.00
2022-10-05T12:57:27.745Z,98111.00
2022-10-05T13:01:34.839Z,98109.00
2022-10-05T13:05:48.274Z,98098.00
2022-10-05T13:09:59.251Z,98092.00
2022-10-05T13:14:32.828Z,98095.00
2022-10-05T13:18:48.505Z,98084.00
2022-10-05T13:23:11.551Z,98081.00
2022-10-05T13:27:27.058Z,98076.00
2022-10-05T13:31:34.906Z,98080.00
2022-10-05T13:35:42.783Z,98071.00
2022-10-05T13:39:56.756Z,98068.00
2022-10-05T13:44:01.647Z,98077.00
2022-10-05T13:48:15.719Z,98090.00
2022-10-05T13:52:25.513Z,98076.00
2022-10-05T13:56:36.224Z,98087.00
2022-10-05T14:00:50.147Z,98084.00
2022-10-05T14:04:55.093Z,98082.00
2022-10-05T14:08:58.167Z,98078.00
2022-10-05T14:13:01.759Z,98074.00
2022-10-05T14:17:04.845Z,98072.00
2022-10-05T14:21:12.794Z,98087.00
2022-10-05T14:25:19.058Z,98071.00
2022-10-05T14:29:26.012Z,98073.00
2022-10-05T14:33:30.834Z,98067.00
2022-10-05T14:37:34.488Z,98058.00
2022-10-05T14:41:37.252Z,98067.00
2022-10-05T14:45:55.042Z,98054.00
2022-10-05T14:50:13.512Z,98041.00
2022-10-05T14:54:33.598Z,98032.00
2022-10-05T14:58:46.864Z,98032.00
2022-10-05T15:02:54.833Z,98029.00
2022-10-05T15:07:17.802Z,98033.00
2022-10-05T15:11:34.642Z,98031.00
2022-10-05T15:16:00.607Z,98014.00
2022-10-05T15:20:15.495Z,98009.00
2022-10-05T15:24:24.668Z,97999.00
2022-10-05T15:28:32.415Z,97993.00
2022-10-05T15:32:49.235Z,97999.00
2022-10-05T15:36:54.437Z,97997.00
2022-10-05T15:41:17.245Z,98003.00
2022-10-05T15:45:31.535Z,98010.00
2022-10-05T15:49:55.171Z,98007.00
2022-10-05T15:54:18.270Z,98002.00
2022-10-05T15:58:32.079Z,97993.00
2022-10-05T16:02:43.099Z,97996.00
2022-10-05T16:07:16.492Z,98001.00
2022-10-05T16:11:30.319Z,98010.00
2022-10-05T16:15:45.915Z,97993.00
2022-10-05T16:20:16.371Z,97999.00
2022-10-05T16:24:39.071Z,97992.00
2022-10-05T16:29:12.432Z,97999.00
2022-10-05T16:33:29.391Z,98007.00
2022-10-05T16:37:51.524Z,98009.00
2022-10-05T16:42:14.064Z,98005.00
2022-10-05T16:46:28.283Z,98004.00
2022-10-05T16:50:54.693Z,98002.00
2022-10-05T16:54:59.268Z,98018.00
2022-10-05T16:59:30.816Z,98018.00
2022-10-05T17:03:44.505Z,98024.00
2022-10-05T17:07:58.547Z,98041.00
2022-10-05T17:12:09.238Z,98033.00
2022-10-05T17:16:23.235Z,98043.00
2022-10-05T17:20:37.940Z,98055.00
2022-10-05T17:25:13.907Z,98052.00
2022-10-05T17:29:24.923Z,98062.00
2022-10-05T17:33:29.646Z,98062.00
2022-10-05T17:37:36.765Z,98071.00
2022-10-05T17:41:38.647Z,98075.00
2022-10-05T17:45:46.615Z,98089.00
2022-10-05T17:50:19.032Z,98109.00
2022-10-05T17:54:45.022Z,98127.00
2022-10-05T17:58:53.815Z,98138.00
2022-10-05T18:02:57.507Z,98129.00
2022-10-05T18:07:04.941Z,98140.00
2022-10-05T18:11:09.806Z,98136.00
2022-10-05T18:15:19.330Z,98145.00
2022-10-05T18:19:23.795Z,98141.00
2022-10-05T18:23:28.154Z,98149.00
2022-10-05T18:27:36.134Z,98151.00
2022-10-05T18:31:55.799Z,98154.00
2022-10-05T18:36:16.327Z,98154.00
2022-10-05T18:40:34.514Z,98153.00
2022-10-05T18:44:51.284Z,98165.00
2022-10-05T18:49:26.223Z,98160.00
2022-10-05T18:53:40.184Z,98169.00
2022-10-05T18:57:53.777Z,98176.00
2022-10-05T19:02:24.588Z,98183.00
2022-10-05T19:06:32.455Z,98194.00
2022-10-05T19:10:45.132Z,98204.00
2022-10-05T19:15:06.438Z,98212.00
2022-10-05T19:19:36.935Z,98211.00
2022-10-05T19:23:58.510Z,98214.00
2022-10-05T19:28:25.469Z,98222.00
2022-10-05T19:32:30.756Z,98223.00
2022-10-05T19:36:45.155Z,98246.00
2022-10-05T19:41:04.826Z,98235.00
2022-10-05T19:45:12.834Z,98243.00
2022-10-05T19:49:17.790Z,98255.00
2022-10-05T19:53:28.502Z,98250.00
2022-10-05T19:57:30.843Z,98265.00
2022-10-05T20:01:37.521Z,98261.00
2022-10-05T20:05:39.900Z,98273.00
2022-10-05T20:09:59.282Z,98264.00
2022-10-05T20:14:06.580Z,98273.00
2022-10-05T20:18:57.647Z,98281.00
2022-10-05T20:23:20.054Z,98280.00
2022-10-05T20:27:37.096Z,98279.00
2022-10-05T20:31:38.268Z,98283.00
2022-10-05T20:35:39.172Z,98302.00
2022-10-05T20:39:41.044Z,98311.00
2022-10-05T20:43:42.681Z,98317.00
2022-10-05T20:47:45.710Z,98324.00
2022-10-05T20:51:46.768Z,98315.00
2022-10-05T20:55:47.777Z,98318.00
2022-10-05T20:59:49.165Z,98315.00
2022-10-05T21:03:50.165Z,98313.00
2022-10-05T21:07:51.247Z,98315.00
2022-10-05T21:11:53.971Z,98334.00
2022-10-05T21:15:55.872Z,98342.00
2022-10-05T21:19:57.045Z,98338.00
2022-10-05T21:23:59.892Z,98334.00
2022-10-05T21:28:01.354Z,98335.00
2022-10-05T21:32:03.190Z,98335.00
2022-10-05T21:36:04.562Z,98350.00
2022-10-05T21:40:06.010Z,98359.00
2022-10-05T21:44:07.081Z,98351.00
2022-10-05T21:48:08.431Z,98357.00
2022-10-05T21:52:11.434Z,98358.00
2022-10-05T21:56:15.017Z,98366.00
2022-10-05T22:00:16.255Z,98364.00
2022-10-05T22:04:17.626Z,98367.00
2022-10-05T22:08:25.037Z,98363.00
2022-10-05T22:12:26.144Z,98360.00
2022-10-05T22:16:28.618Z,98376.00
2022-10-05T22:20:31.244Z,98391.00
2022-10-05T22:24:32.250Z,98389.00
2022-10-05T22:28:33.908Z,98386.00
2022-10-05T22:32:35.145Z,98376.00
2022-10-05T22:36:37.018Z,98377.00
2022-10-05T22:40:38.081Z,98383.00
2022-10-05T22:44:39.656Z,98391.00
2022-10-05T22:48:40.545Z,98397.00
2022-10-05T22:52:41.936Z,98404.00
2022-10-05T22:56:43.294Z,98410.00
2022-10-05T23:00:58.115Z,98407.00
2022-10-05T23:04:48.221Z,98407.00
2022-10-05T23:08:49.366Z,98416.00
2022-10-05T23:13:00.501Z,98413.00
2022-10-05T23:16:59.227Z,98421.00
2022-10-05T23:21:00.573Z,98430.00
2022-10-05T23:25:01.590Z,98430.00
2022-10-05T23:29:02.952Z,98433.00
2022-10-05T23:33:03.834Z,98417.00
2022-10-05T23:37:05.855Z,98424.00
2022-10-05T23:41:08.106Z,98426.00
2022-10-05T23:45:10.767Z,98420.00
2022-10-05T23:49:13.795Z,98425.00
2022-10-05T23:53:15.857Z,98415.00
2022-10-05T23:57:18.125Z,98423.00
